createdAt,value
2019-04-06T00:00:47.465Z,15.83
2019-04-06T00:01:47.469Z,15.92
2019-04-06T00:02:47.472Z,15.82
2019-04-06T00:03:47.482Z,15.92
2019-04-06T00:04:47.475Z,15.92
2019-04-06T00:05:47.478Z,15.92
2019-04-06T00:06:47.509Z,15.72
2019-04-06T00:07:47.560Z,15.72
2019-04-06T00:08:47.485Z,15.82
2019-04-06T00:09:47.488Z,16.02
2019-04-06T00:10:47.491Z,16.02
2019-04-06T00:11:47.495Z,15.72
2019-04-06T00:12:47.496Z,15.82
2019-04-06T00:13:47.502Z,15.92
2019-04-06T00:14:47.502Z,15.82
2019-04-06T00:15:47.505Z,15.92
2019-04-06T00:16:47.508Z,15.92
2019-04-06T00:17:47.525Z,15.72
2019-04-06T00:18:47.518Z,16.21
2019-04-06T00:19:47.515Z,16.31
2019-04-06T00:20:47.520Z,16.21
2019-04-06T00:21:47.526Z,16.31
2019-04-06T00:22:47.524Z,15.82
2019-04-06T00:23:47.526Z,16.41
2019-04-06T00:24:47.536Z,16.21
2019-04-06T00:25:47.533Z,16.11
2019-04-06T00:26:47.561Z,16.21
2019-04-06T00:27:47.540Z,16.12
2019-04-06T00:28:47.544Z,16.21
2019-04-06T00:29:47.545Z,16.21
2019-04-06T00:30:47.545Z,16.21
2019-04-06T00:31:47.558Z,16.31
2019-04-06T00:32:47.551Z,16.31
2019-04-06T00:33:47.555Z,16.11
2019-04-06T00:34:47.557Z,16.31
2019-04-06T00:35:47.559Z,16.11
2019-04-06T00:36:47.562Z,16.21
2019-04-06T00:37:47.566Z,16.11
2019-04-06T00:38:47.568Z,16.21
2019-04-06T00:39:47.572Z,16.21
2019-04-06T00:40:47.638Z,16.11
2019-04-06T00:41:47.576Z,16.11
2019-04-06T00:42:47.588Z,16.21
2019-04-06T00:43:47.582Z,16.11
2019-04-06T00:44:47.585Z,16.02
2019-04-06T00:45:47.596Z,16.21
2019-04-06T00:46:47.599Z,16.02
2019-04-06T00:47:47.607Z,16.21
2019-04-06T00:48:47.598Z,16.11
2019-04-06T00:49:47.603Z,16.21
2019-04-06T00:50:47.626Z,15.92
2019-04-06T00:51:47.603Z,16.11
2019-04-06T00:52:47.606Z,16.02
2019-04-06T00:53:47.616Z,16.21
2019-04-06T00:54:47.612Z,16.11
2019-04-06T00:55:55.462Z,15.92
2019-04-06T00:56:47.618Z,16.02
2019-04-06T00:57:47.621Z,16.02
2019-04-06T00:58:47.622Z,15.92
2019-04-06T00:59:47.625Z,16.02
2019-04-06T01:00:47.632Z,15.92
2019-04-06T01:01:47.632Z,15.82
2019-04-06T01:02:47.633Z,15.92
2019-04-06T01:03:47.636Z,15.82
2019-04-06T01:04:47.645Z,15.82
2019-04-06T01:05:47.642Z,15.82
2019-04-06T01:06:47.643Z,15.92
2019-04-06T01:07:47.696Z,15.82
2019-04-06T01:08:47.650Z,15.92
2019-04-06T01:09:47.651Z,15.82
2019-04-06T01:10:47.655Z,16.11
2019-04-06T01:11:47.663Z,15.82
2019-04-06T01:12:47.711Z,16.21
2019-04-06T01:13:47.666Z,15.92
2019-04-06T01:14:47.666Z,16.11
2019-04-06T01:15:47.671Z,15.92
2019-04-06T01:16:47.681Z,16.11
2019-04-06T01:17:47.732Z,16.02
2019-04-06T01:18:47.678Z,16.31
2019-04-06T01:19:47.681Z,16.31
2019-04-06T01:20:47.683Z,16.11
2019-04-06T01:21:47.687Z,16.11
2019-04-06T01:22:47.688Z,16.21
2019-04-06T01:23:47.691Z,16.21
2019-04-06T01:24:47.732Z,16.21
2019-04-06T01:25:47.694Z,16.11
2019-04-06T01:26:47.699Z,16.21
2019-04-06T01:27:47.703Z,16.31
2019-04-06T01:28:47.715Z,16.11
2019-04-06T01:29:47.708Z,16.21
2019-04-06T01:30:47.710Z,16.21
2019-04-06T01:31:47.712Z,16.21
2019-04-06T01:32:47.766Z,16.21
2019-04-06T01:33:47.782Z,16.21
2019-04-06T01:34:47.722Z,16.31
2019-04-06T01:35:47.831Z,16.31
2019-04-06T01:36:47.730Z,16.21
2019-04-06T01:37:47.734Z,16.11
2019-04-06T01:38:47.731Z,16.21
2019-04-06T01:39:47.736Z,16.21
2019-04-06T01:40:47.739Z,16.41
2019-04-06T01:41:47.741Z,16.21
2019-04-06T01:42:47.786Z,16.31
2019-04-06T01:43:47.806Z,16.31
2019-04-06T01:44:47.748Z,16.21
2019-04-06T01:45:47.751Z,16.31
2019-04-06T01:46:47.752Z,16.41
2019-04-06T01:47:47.759Z,16.41
2019-04-06T01:48:47.760Z,16.21
2019-04-06T01:49:47.759Z,16.31
2019-04-06T01:50:47.762Z,16.31
2019-04-06T01:51:47.766Z,16.31
2019-04-06T01:52:47.769Z,16.41
2019-04-06T01:53:47.774Z,16.11
2019-04-06T01:54:47.776Z,16.11
2019-04-06T01:55:47.778Z,16.11
2019-04-06T01:56:47.780Z,16.11
2019-04-06T01:57:47.783Z,16.11
2019-04-06T01:58:47.788Z,16.11
2019-04-06T01:59:47.788Z,16.21
2019-04-06T02:00:47.793Z,16.02
2019-04-06T02:01:47.794Z,16.21
2019-04-06T02:02:47.795Z,16.21
2019-04-06T02:03:47.799Z,16.21
2019-04-06T02:04:47.802Z,16.21
2019-04-06T02:05:47.944Z,16.11
2019-04-06T02:06:47.808Z,16.21
2019-04-06T02:07:47.808Z,16.11
2019-04-06T02:08:47.812Z,16.21
2019-04-06T02:09:47.820Z,16.21
2019-04-06T02:10:47.818Z,16.11
2019-04-06T02:11:47.822Z,16.31
2019-04-06T02:12:47.824Z,16.31
2019-04-06T02:13:47.829Z,16.21
2019-04-06T02:14:47.829Z,16.31
2019-04-06T02:15:47.832Z,16.21
2019-04-06T02:16:47.834Z,16.21
2019-04-06T02:17:47.888Z,16.31
2019-04-06T02:18:47.839Z,16.31
2019-04-06T02:19:47.843Z,16.31
2019-04-06T02:20:47.847Z,16.21
2019-04-06T02:21:47.846Z,16.21
2019-04-06T02:22:47.850Z,16.31
2019-04-06T02:23:47.854Z,16.31
2019-04-06T02:24:47.855Z,16.31
2019-04-06T02:25:47.859Z,16.31
2019-04-06T02:26:47.862Z,16.41
2019-04-06T02:27:47.862Z,16.41
2019-04-06T02:28:47.881Z,16.31
2019-04-06T02:29:47.869Z,16.50
2019-04-06T02:30:47.876Z,16.21
2019-04-06T02:31:47.880Z,16.21
2019-04-06T02:32:47.883Z,16.41
2019-04-06T02:33:47.888Z,16.31
2019-04-06T02:34:47.884Z,16.31
2019-04-06T02:35:47.886Z,16.31
2019-04-06T02:36:47.892Z,16.21
2019-04-06T02:37:47.893Z,16.21
2019-04-06T02:38:47.894Z,16.41
2019-04-06T02:39:47.903Z,16.41
2019-04-06T02:40:47.902Z,16.41
2019-04-06T02:41:47.924Z,16.21
2019-04-06T02:42:47.911Z,16.41
2019-04-06T02:43:47.909Z,16.41
2019-04-06T02:44:47.913Z,16.41
2019-04-06T02:45:47.921Z,16.31
2019-04-06T02:46:47.916Z,16.21
2019-04-06T02:47:47.920Z,16.41
2019-04-06T02:48:48.161Z,16.41
2019-04-06T02:49:47.984Z,16.41
2019-04-06T02:50:47.939Z,16.31
2019-04-06T02:51:47.939Z,16.41
2019-04-06T02:52:48.087Z,16.31
2019-04-06T02:53:47.938Z,16.31
2019-04-06T02:54:47.940Z,16.41
2019-04-06T02:55:47.939Z,16.41
2019-04-06T02:56:48.199Z,16.60
2019-04-06T02:57:47.948Z,16.41
2019-04-06T02:58:47.949Z,16.41
2019-04-06T02:59:47.956Z,16.41
2019-04-06T03:00:47.969Z,16.21
2019-04-06T03:01:47.972Z,16.50
2019-04-06T03:02:47.972Z,16.69
2019-04-06T03:03:47.966Z,16.41
2019-04-06T03:04:47.970Z,16.21
2019-04-06T03:05:47.970Z,16.60
2019-04-06T03:06:47.968Z,16.60
2019-04-06T03:07:47.974Z,16.60
2019-04-06T03:08:48.168Z,16.50
2019-04-06T03:09:47.985Z,16.60
2019-04-06T03:10:48.030Z,16.50
2019-04-06T03:11:47.984Z,16.41
2019-04-06T03:12:48.006Z,16.60
2019-04-06T03:13:47.990Z,16.50
2019-04-06T03:14:48.190Z,16.41
2019-04-06T03:15:47.998Z,16.41
2019-04-06T03:16:47.998Z,16.50
2019-04-06T03:17:48.001Z,16.60
2019-04-06T03:18:48.009Z,16.50
2019-04-06T03:19:48.060Z,16.60
2019-04-06T03:20:48.006Z,16.60
2019-04-06T03:21:48.013Z,16.41
2019-04-06T03:22:48.018Z,16.50
2019-04-06T03:23:51.529Z,16.50
2019-04-06T03:24:48.030Z,16.50
2019-04-06T03:25:48.022Z,16.50
2019-04-06T03:26:59.934Z,16.50
2019-04-06T03:27:48.028Z,16.50
2019-04-06T03:28:48.029Z,16.50
2019-04-06T03:29:57.526Z,16.60
2019-04-06T03:30:48.035Z,16.41
2019-04-06T03:31:48.084Z,16.69
2019-04-06T03:32:48.046Z,16.41
2019-04-06T03:33:48.044Z,16.69
2019-04-06T03:34:48.078Z,16.60
2019-04-06T03:35:50.230Z,16.79
2019-04-06T03:36:48.051Z,16.60
2019-04-06T03:37:48.182Z,16.41
2019-04-06T03:38:48.243Z,16.79
2019-04-06T03:39:48.066Z,16.69
2019-04-06T03:40:48.077Z,16.79
2019-04-06T03:41:48.070Z,16.79
2019-04-06T03:42:48.078Z,16.79
2019-04-06T03:43:48.094Z,16.79
2019-04-06T03:44:48.074Z,16.69
2019-04-06T03:45:48.083Z,16.79
2019-04-06T03:46:48.083Z,16.69
2019-04-06T03:47:48.083Z,16.69
2019-04-06T03:48:48.084Z,16.79
2019-04-06T03:49:48.088Z,16.69
2019-04-06T03:50:48.095Z,16.69
2019-04-06T03:51:48.103Z,16.79
2019-04-06T03:52:48.283Z,16.69
2019-04-06T03:53:48.102Z,16.79
2019-04-06T03:54:48.315Z,16.69
2019-04-06T03:55:48.105Z,16.79
2019-04-06T03:56:48.112Z,16.79
2019-04-06T03:57:48.113Z,16.69
2019-04-06T03:58:48.115Z,16.79
2019-04-06T03:59:48.119Z,16.69
2019-04-06T04:00:48.307Z,16.69
2019-04-06T04:01:48.119Z,16.60
2019-04-06T04:02:48.301Z,16.69
2019-04-06T04:03:48.132Z,16.69
2019-04-06T04:04:48.143Z,16.69
2019-04-06T04:05:48.189Z,16.69
2019-04-06T04:06:48.131Z,16.69
2019-04-06T04:07:48.146Z,16.69
2019-04-06T04:08:48.137Z,16.60
2019-04-06T04:09:48.378Z,16.79
2019-04-06T04:10:48.179Z,16.69
2019-04-06T04:11:48.306Z,16.60
2019-04-06T04:12:48.155Z,16.69
2019-04-06T04:13:48.157Z,16.69
2019-04-06T04:14:48.332Z,16.60
2019-04-06T04:15:48.158Z,16.69
2019-04-06T04:16:48.265Z,16.69
2019-04-06T04:17:48.163Z,16.69
2019-04-06T04:18:48.164Z,16.60
2019-04-06T04:19:48.167Z,16.60
2019-04-06T04:20:48.175Z,16.69
2019-04-06T04:21:48.264Z,16.69
2019-04-06T04:22:48.175Z,16.69
2019-04-06T04:23:48.186Z,16.69
2019-04-06T04:24:48.182Z,16.69
2019-04-06T04:25:48.183Z,16.69
2019-04-06T04:26:48.185Z,16.69
2019-04-06T04:27:48.189Z,16.69
2019-04-06T04:28:48.306Z,16.69
2019-04-06T04:29:48.194Z,16.69
2019-04-06T04:30:48.195Z,16.69
2019-04-06T04:31:48.198Z,16.69
2019-04-06T04:32:48.202Z,16.69
2019-04-06T04:33:48.213Z,16.69
2019-04-06T04:34:48.319Z,16.69
2019-04-06T04:35:48.208Z,16.69
2019-04-06T04:36:48.214Z,16.69
2019-04-06T04:37:48.220Z,16.69
2019-04-06T04:38:48.217Z,16.69
2019-04-06T04:39:48.220Z,16.60
2019-04-06T04:40:48.229Z,16.89
2019-04-06T04:41:48.403Z,16.60
2019-04-06T04:42:48.230Z,16.60
2019-04-06T04:43:48.231Z,16.69
2019-04-06T04:44:48.365Z,16.60
2019-04-06T04:45:48.251Z,16.60
2019-04-06T04:46:48.346Z,16.50
2019-04-06T04:47:50.140Z,16.69
2019-04-06T04:48:48.287Z,16.69
2019-04-06T04:49:48.264Z,16.69
2019-04-06T04:50:48.258Z,16.60
2019-04-06T04:51:48.258Z,16.99
2019-04-06T04:52:48.254Z,16.60
2019-04-06T04:53:48.427Z,16.89
2019-04-06T04:54:48.262Z,16.69
2019-04-06T04:55:48.266Z,16.69
2019-04-06T04:56:48.367Z,16.60
2019-04-06T04:57:48.268Z,16.89
2019-04-06T04:58:48.272Z,16.69
2019-04-06T04:59:48.274Z,16.89
2019-04-06T05:00:48.277Z,16.89
2019-04-06T05:01:48.285Z,16.60
2019-04-06T05:02:48.281Z,16.99
2019-04-06T05:03:48.283Z,16.99
2019-04-06T05:04:48.400Z,16.79
2019-04-06T05:05:48.288Z,16.99
2019-04-06T05:06:48.291Z,16.60
2019-04-06T05:07:48.362Z,16.60
2019-04-06T05:08:48.311Z,16.60
2019-04-06T05:09:48.302Z,16.69
2019-04-06T05:10:48.303Z,16.99
2019-04-06T05:11:49.135Z,16.60
2019-04-06T05:12:48.311Z,16.99
2019-04-06T05:13:48.318Z,16.99
2019-04-06T05:14:48.314Z,16.89
2019-04-06T05:15:48.316Z,16.89
2019-04-06T05:16:48.320Z,16.89
2019-04-06T05:17:48.320Z,16.89
2019-04-06T05:18:48.328Z,16.89
2019-04-06T05:19:48.330Z,16.99
2019-04-06T05:20:48.330Z,16.89
2019-04-06T05:21:48.494Z,16.89
2019-04-06T05:22:48.333Z,16.89
2019-04-06T05:23:48.341Z,16.89
2019-04-06T05:24:48.340Z,16.89
2019-04-06T05:25:48.560Z,17.08
2019-04-06T05:26:48.345Z,16.99
2019-04-06T05:27:52.596Z,16.99
2019-04-06T05:28:48.350Z,16.89
2019-04-06T05:29:48.355Z,16.89
2019-04-06T05:30:48.355Z,16.79
2019-04-06T05:31:48.359Z,16.89
2019-04-06T05:32:48.362Z,16.79
2019-04-06T05:33:48.363Z,16.89
2019-04-06T05:34:48.398Z,16.89
2019-04-06T05:35:48.370Z,16.89
2019-04-06T05:36:48.374Z,16.79
2019-04-06T05:37:48.377Z,16.79
2019-04-06T05:38:48.377Z,16.79
2019-04-06T05:39:48.383Z,16.89
2019-04-06T05:40:48.384Z,16.89
2019-04-06T05:41:50.449Z,16.89
2019-04-06T05:42:48.388Z,16.89
2019-04-06T05:43:48.737Z,16.79
2019-04-06T05:44:48.399Z,16.99
2019-04-06T05:45:48.398Z,16.99
2019-04-06T05:46:48.585Z,16.79
2019-04-06T05:47:48.402Z,16.79
2019-04-06T05:48:48.461Z,16.89
2019-04-06T05:49:48.407Z,16.79
2019-04-06T05:50:48.409Z,16.89
2019-04-06T05:51:48.432Z,16.89
2019-04-06T05:52:48.417Z,16.79
2019-04-06T05:53:48.417Z,16.79
2019-04-06T05:54:48.420Z,16.69
2019-04-06T05:55:48.426Z,16.89
2019-04-06T05:56:48.429Z,16.69
2019-04-06T05:57:48.599Z,16.89
2019-04-06T05:58:48.432Z,16.89
2019-04-06T05:59:48.438Z,16.79
2019-04-06T06:00:48.437Z,16.69
2019-04-06T06:01:49.357Z,16.79
2019-04-06T06:02:48.443Z,16.79
2019-04-06T06:03:48.447Z,16.79
2019-04-06T06:04:48.454Z,16.60
2019-04-06T06:05:48.500Z,16.60
2019-04-06T06:06:48.452Z,16.69
2019-04-06T06:07:48.454Z,16.69
2019-04-06T06:08:48.459Z,16.69
2019-04-06T06:09:48.462Z,16.79
2019-04-06T06:10:48.613Z,16.79
2019-04-06T06:11:48.465Z,16.89
2019-04-06T06:12:48.469Z,16.79
2019-04-06T06:13:48.471Z,16.69
2019-04-06T06:14:48.473Z,16.69
2019-04-06T06:15:48.577Z,16.79
2019-04-06T06:16:48.529Z,16.69
2019-04-06T06:17:48.774Z,16.69
2019-04-06T06:18:48.533Z,16.60
2019-04-06T06:19:48.487Z,16.69
2019-04-06T06:20:48.698Z,16.69
2019-04-06T06:21:48.562Z,16.79
2019-04-06T06:22:48.496Z,16.79
2019-04-06T06:23:48.572Z,16.69
2019-04-06T06:24:48.501Z,16.69
2019-04-06T06:25:48.504Z,16.60
2019-04-06T06:26:48.507Z,16.79
2019-04-06T06:27:48.511Z,16.69
2019-04-06T06:28:48.524Z,16.79
2019-04-06T06:29:48.517Z,16.79
2019-04-06T06:30:48.703Z,16.79
2019-04-06T06:31:48.521Z,16.69
2019-04-06T06:32:48.521Z,16.69
2019-04-06T06:33:48.523Z,16.69
2019-04-06T06:34:48.525Z,16.69
2019-04-06T06:35:48.529Z,16.79
2019-04-06T06:36:48.718Z,16.69
2019-04-06T06:37:48.536Z,16.79
2019-04-06T06:38:48.536Z,16.79
2019-04-06T06:39:48.539Z,16.60
2019-04-06T06:40:48.543Z,16.79
2019-04-06T06:41:48.640Z,16.69
2019-04-06T06:42:48.547Z,16.69
2019-04-06T06:43:48.553Z,16.60
2019-04-06T06:44:48.555Z,16.69
2019-04-06T06:45:48.560Z,16.69
2019-04-06T06:46:48.558Z,16.79
2019-04-06T06:47:48.854Z,16.60
2019-04-06T06:48:48.565Z,16.69
2019-04-06T06:49:48.568Z,16.69
2019-04-06T06:50:48.569Z,16.89
2019-04-06T06:51:48.571Z,16.89
2019-04-06T06:52:48.572Z,17.08
2019-04-06T06:53:48.583Z,17.08
2019-04-06T06:54:48.597Z,17.08
2019-04-06T06:55:48.582Z,17.18
2019-04-06T06:56:48.630Z,17.08
2019-04-06T06:57:48.589Z,16.99
2019-04-06T06:58:48.590Z,16.89
2019-04-06T06:59:48.591Z,16.99
2019-04-06T07:00:48.596Z,16.99
2019-04-06T07:01:48.599Z,16.99
2019-04-06T07:02:48.773Z,17.08
2019-04-06T07:03:48.753Z,16.99
2019-04-06T07:04:48.607Z,16.99
2019-04-06T07:05:48.698Z,17.18
2019-04-06T07:06:48.613Z,17.08
2019-04-06T07:07:48.611Z,17.08
2019-04-06T07:08:48.629Z,17.08
2019-04-06T07:09:48.620Z,16.99
2019-04-06T07:10:48.622Z,17.08
2019-04-06T07:11:48.624Z,17.08
2019-04-06T07:12:48.627Z,17.08
2019-04-06T07:13:48.855Z,17.18
2019-04-06T07:14:48.725Z,16.99
2019-04-06T07:15:48.636Z,17.18
2019-04-06T07:16:48.796Z,17.18
2019-04-06T07:17:48.641Z,17.18
2019-04-06T07:18:48.644Z,17.18
2019-04-06T07:19:48.646Z,17.18
2019-04-06T07:20:48.647Z,17.08
2019-04-06T07:21:48.651Z,17.08
2019-04-06T07:22:48.736Z,17.08
2019-04-06T07:23:48.655Z,17.08
2019-04-06T07:24:48.660Z,17.08
2019-04-06T07:25:57.455Z,17.18
2019-04-06T07:26:48.662Z,17.18
2019-04-06T07:27:48.669Z,17.18
2019-04-06T07:28:48.669Z,17.18
2019-04-06T07:29:48.671Z,17.18
2019-04-06T07:30:48.674Z,17.18
2019-04-06T07:31:48.684Z,17.18
2019-04-06T07:32:48.686Z,17.18
2019-04-06T07:33:48.760Z,17.18
2019-04-06T07:34:48.689Z,17.08
2019-04-06T07:35:48.688Z,17.08
2019-04-06T07:36:48.690Z,17.08
2019-04-06T07:37:48.694Z,17.08
2019-04-06T07:38:48.697Z,17.18
2019-04-06T07:39:48.940Z,17.08
2019-04-06T07:40:48.702Z,17.08
2019-04-06T07:41:48.704Z,16.99
2019-04-06T07:42:48.755Z,17.28
2019-04-06T07:43:48.709Z,17.28
2019-04-06T07:44:48.889Z,17.28
2019-04-06T07:45:48.711Z,17.18
2019-04-06T07:46:48.716Z,17.28
2019-04-06T07:47:48.719Z,17.28
2019-04-06T07:48:48.859Z,17.18
2019-04-06T07:49:48.731Z,17.28
2019-04-06T07:50:48.727Z,17.18
2019-04-06T07:51:48.730Z,17.28
2019-04-06T07:52:48.732Z,17.18
2019-04-06T07:53:48.737Z,17.18
2019-04-06T07:54:48.738Z,17.18
2019-04-06T07:55:48.739Z,17.27
2019-04-06T07:56:48.744Z,17.18
2019-04-06T07:57:48.746Z,17.38
2019-04-06T07:58:50.035Z,17.28
2019-04-06T07:59:48.939Z,17.18
2019-04-06T08:00:48.758Z,17.28
2019-04-06T08:01:49.097Z,17.18
2019-04-06T08:02:48.759Z,17.28
2019-04-06T08:03:48.760Z,17.38
2019-04-06T08:04:48.769Z,17.28
2019-04-06T08:05:48.896Z,17.18
2019-04-06T08:06:48.771Z,17.28
2019-04-06T08:07:48.773Z,17.28
2019-04-06T08:08:48.776Z,17.18
2019-04-06T08:09:48.779Z,17.28
2019-04-06T08:10:48.778Z,17.28
2019-04-06T08:11:48.908Z,17.38
2019-04-06T08:12:48.784Z,17.38
2019-04-06T08:13:48.788Z,17.28
2019-04-06T08:14:49.018Z,17.38
2019-04-06T08:15:48.796Z,17.38
2019-04-06T08:16:48.898Z,17.38
2019-04-06T08:17:48.798Z,17.28
2019-04-06T08:18:48.889Z,17.18
2019-04-06T08:19:48.802Z,17.28
2019-04-06T08:20:48.808Z,17.28
2019-04-06T08:21:48.810Z,17.18
2019-04-06T08:22:48.809Z,17.08
2019-04-06T08:23:48.813Z,17.47
2019-04-06T08:24:48.817Z,17.47
2019-04-06T08:25:48.820Z,17.28
2019-04-06T08:26:48.819Z,17.47
2019-04-06T08:27:48.823Z,17.18
2019-04-06T08:28:59.459Z,17.28
2019-04-06T08:29:49.077Z,17.28
2019-04-06T08:30:48.830Z,17.08
2019-04-06T08:31:48.882Z,17.57
2019-04-06T08:32:48.839Z,17.47
2019-04-06T08:33:48.840Z,17.57
2019-04-06T08:34:48.845Z,17.57
2019-04-06T08:35:48.843Z,17.57
2019-04-06T08:36:48.921Z,17.28
2019-04-06T08:37:48.853Z,17.47
2019-04-06T08:38:49.080Z,17.28
2019-04-06T08:39:48.875Z,17.28
2019-04-06T08:40:48.858Z,17.08
2019-04-06T08:41:48.879Z,17.38
2019-04-06T08:42:48.862Z,17.38
2019-04-06T08:43:48.869Z,17.38
2019-04-06T08:44:48.871Z,17.57
2019-04-06T08:45:48.871Z,17.46
2019-04-06T08:46:48.872Z,17.38
2019-04-06T08:47:48.887Z,17.66
2019-04-06T08:48:48.877Z,17.38
2019-04-06T08:49:49.146Z,17.57
2019-04-06T08:50:48.885Z,17.57
2019-04-06T08:51:48.887Z,17.47
2019-04-06T08:52:48.890Z,17.57
2019-04-06T08:53:48.891Z,17.38
2019-04-06T08:54:48.896Z,17.28
2019-04-06T08:55:48.898Z,17.38
2019-04-06T08:56:48.899Z,17.38
2019-04-06T08:57:49.071Z,17.28
2019-04-06T08:58:48.946Z,17.57
2019-04-06T08:59:48.916Z,17.28
2019-04-06T09:00:49.131Z,17.57
2019-04-06T09:01:48.913Z,17.47
2019-04-06T09:02:48.918Z,17.47
2019-04-06T09:03:48.961Z,17.28
2019-04-06T09:04:49.013Z,17.38
2019-04-06T09:05:48.928Z,17.38
2019-04-06T09:06:48.926Z,17.28
2019-04-06T09:07:48.929Z,17.38
2019-04-06T09:08:48.935Z,17.38
2019-04-06T09:09:48.938Z,17.28
2019-04-06T09:10:49.137Z,17.47
2019-04-06T09:11:48.939Z,17.28
2019-04-06T09:12:48.941Z,17.28
2019-04-06T09:13:48.946Z,17.18
2019-04-06T09:14:48.946Z,17.47
2019-04-06T09:15:48.949Z,17.28
2019-04-06T09:16:48.953Z,17.47
2019-04-06T09:17:48.985Z,17.28
2019-04-06T09:18:49.498Z,17.47
2019-04-06T09:19:49.100Z,17.47
2019-04-06T09:20:48.963Z,17.38
2019-04-06T09:21:48.968Z,17.38
2019-04-06T09:22:48.967Z,17.28
2019-04-06T09:23:48.969Z,17.28
2019-04-06T09:24:48.973Z,17.28
2019-04-06T09:25:49.233Z,17.47
2019-04-06T09:26:48.977Z,17.28
2019-04-06T09:27:48.983Z,17.28
2019-04-06T09:28:49.104Z,17.47
2019-04-06T09:29:48.988Z,17.57
2019-04-06T09:30:48.988Z,17.57
2019-04-06T09:31:48.993Z,17.57
2019-04-06T09:32:49.056Z,17.57
2019-04-06T09:33:48.998Z,17.57
2019-04-06T09:34:48.997Z,17.28
2019-04-06T09:35:49.029Z,17.38
2019-04-06T09:36:49.005Z,17.18
2019-04-06T09:37:49.008Z,17.18
2019-04-06T09:38:49.010Z,17.18
2019-04-06T09:39:49.019Z,17.38
2019-04-06T09:40:49.044Z,17.38
2019-04-06T09:41:49.241Z,17.38
2019-04-06T09:42:49.021Z,17.18
2019-04-06T09:43:49.129Z,17.18
2019-04-06T09:44:49.034Z,17.18
2019-04-06T09:45:49.030Z,17.28
2019-04-06T09:46:49.228Z,17.28
2019-04-06T09:47:49.253Z,17.38
2019-04-06T09:48:49.188Z,17.28
2019-04-06T09:49:49.039Z,17.47
2019-04-06T09:50:49.041Z,17.38
2019-04-06T09:51:49.049Z,17.38
2019-04-06T09:52:49.049Z,17.28
2019-04-06T09:53:49.050Z,17.47
2019-04-06T09:54:49.057Z,17.18
2019-04-06T09:55:49.058Z,17.28
2019-04-06T09:56:49.104Z,17.28
2019-04-06T09:57:49.062Z,17.38
2019-04-06T09:58:49.065Z,17.18
2019-04-06T09:59:49.066Z,17.18
2019-04-06T10:00:49.097Z,17.38
2019-04-06T10:01:49.073Z,17.38
2019-04-06T10:02:49.076Z,17.38
2019-04-06T10:03:49.078Z,17.38
2019-04-06T10:04:49.080Z,17.28
2019-04-06T10:05:49.084Z,17.18
2019-04-06T10:06:49.088Z,17.38
2019-04-06T10:07:49.088Z,17.47
2019-04-06T10:08:49.092Z,17.47
2019-04-06T10:09:49.331Z,17.57
2019-04-06T10:10:49.212Z,17.47
2019-04-06T10:11:49.247Z,17.47
2019-04-06T10:12:49.125Z,17.57
2019-04-06T10:13:49.104Z,17.57
2019-04-06T10:14:49.107Z,17.57
2019-04-06T10:15:49.414Z,17.28
2019-04-06T10:16:49.304Z,17.38
2019-04-06T10:17:49.124Z,17.38
2019-04-06T10:18:49.120Z,17.38
2019-04-06T10:19:49.121Z,17.38
2019-04-06T10:20:49.124Z,17.38
2019-04-06T10:21:49.128Z,17.28
2019-04-06T10:22:49.346Z,17.47
2019-04-06T10:23:49.133Z,17.38
2019-04-06T10:24:49.136Z,17.28
2019-04-06T10:25:49.449Z,17.38
2019-04-06T10:26:49.155Z,17.38
2019-04-06T10:27:49.144Z,17.38
2019-04-06T10:28:49.147Z,17.38
2019-04-06T10:29:50.230Z,17.38
2019-04-06T10:30:49.152Z,17.38
2019-04-06T10:31:49.154Z,17.47
2019-04-06T10:32:49.397Z,17.38
2019-04-06T10:33:49.159Z,17.38
2019-04-06T10:34:49.164Z,17.38
2019-04-06T10:35:49.162Z,17.38
2019-04-06T10:36:49.369Z,17.28
2019-04-06T10:37:49.478Z,17.38
2019-04-06T10:38:49.175Z,17.38
2019-04-06T10:39:49.207Z,17.28
2019-04-06T10:40:49.180Z,17.47
2019-04-06T10:41:49.181Z,17.38
2019-04-06T10:42:49.184Z,17.28
2019-04-06T10:43:49.188Z,17.28
2019-04-06T10:44:49.199Z,17.38
2019-04-06T10:45:49.194Z,17.38
2019-04-06T10:46:49.193Z,17.47
2019-04-06T10:47:49.199Z,17.38
2019-04-06T10:48:49.208Z,17.38
2019-04-06T10:49:49.346Z,17.28
2019-04-06T10:50:49.206Z,17.38
2019-04-06T10:51:49.209Z,17.28
2019-04-06T10:52:49.213Z,17.38
2019-04-06T10:53:49.219Z,17.28
2019-04-06T10:54:49.215Z,17.28
2019-04-06T10:55:49.281Z,17.38
2019-04-06T10:56:49.224Z,17.28
2019-04-06T10:57:49.226Z,17.28
2019-04-06T10:58:49.230Z,17.38
2019-04-06T11:00:00.317Z,17.28
2019-04-06T11:00:49.259Z,17.38
2019-04-06T11:01:49.240Z,17.28
2019-04-06T11:02:49.238Z,17.38
2019-04-06T11:03:49.240Z,17.28
2019-04-06T11:04:49.304Z,17.28
2019-04-06T11:05:49.246Z,17.28
2019-04-06T11:06:49.252Z,17.28
2019-04-06T11:07:49.387Z,17.38
2019-04-06T11:08:49.256Z,17.47
2019-04-06T11:09:49.260Z,17.57
2019-04-06T11:10:49.554Z,17.57
2019-04-06T11:11:49.304Z,17.38
2019-04-06T11:12:49.286Z,17.47
2019-04-06T11:13:49.267Z,17.47
2019-04-06T11:14:49.270Z,17.28
2019-04-06T11:15:49.273Z,17.28
2019-04-06T11:16:49.335Z,17.47
2019-04-06T11:17:49.279Z,17.57
2019-04-06T11:18:49.280Z,17.57
2019-04-06T11:19:49.354Z,17.47
2019-04-06T11:20:49.494Z,17.57
2019-04-06T11:21:49.289Z,17.57
2019-04-06T11:22:49.432Z,17.38
2019-04-06T11:23:49.293Z,17.57
2019-04-06T11:24:49.385Z,17.38
2019-04-06T11:25:49.302Z,17.38
2019-04-06T11:26:49.303Z,17.47
2019-04-06T11:27:49.423Z,17.47
2019-04-06T11:28:49.308Z,17.47
2019-04-06T11:29:49.312Z,17.47
2019-04-06T11:30:49.313Z,17.18
2019-04-06T11:31:49.585Z,17.28
2019-04-06T11:32:49.320Z,17.47
2019-04-06T11:33:49.329Z,17.38
2019-04-06T11:34:49.323Z,17.47
2019-04-06T11:35:49.624Z,17.47
2019-04-06T11:36:49.329Z,17.28
2019-04-06T11:37:49.332Z,17.38
2019-04-06T11:38:49.340Z,17.38
2019-04-06T11:39:49.354Z,17.38
2019-04-06T11:40:49.550Z,17.18
2019-04-06T11:41:49.343Z,17.28
2019-04-06T11:42:49.344Z,17.38
2019-04-06T11:43:49.347Z,17.38
2019-04-06T11:44:49.350Z,17.28
2019-04-06T11:45:49.631Z,17.18
2019-04-06T11:46:49.356Z,17.18
2019-04-06T11:47:49.360Z,17.38
2019-04-06T11:48:49.570Z,17.38
2019-04-06T11:49:49.365Z,17.18
2019-04-06T11:50:49.391Z,17.47
2019-04-06T11:51:49.368Z,17.38
2019-04-06T11:52:49.373Z,17.38
2019-04-06T11:53:49.374Z,17.38
2019-04-06T11:54:49.376Z,17.28
2019-04-06T11:55:49.423Z,17.18
2019-04-06T11:56:49.638Z,17.18
2019-04-06T11:57:49.386Z,17.08
2019-04-06T11:58:49.388Z,17.57
2019-04-06T11:59:49.393Z,17.38
2019-04-06T12:00:49.494Z,17.57
2019-04-06T12:01:49.403Z,17.47
2019-04-06T12:02:49.453Z,17.57
2019-04-06T12:03:49.407Z,17.18
2019-04-06T12:04:49.404Z,17.57
2019-04-06T12:05:49.410Z,17.47
2019-04-06T12:06:49.408Z,17.28
2019-04-06T12:07:49.412Z,17.18
2019-04-06T12:08:49.416Z,17.47
2019-04-06T12:09:49.417Z,17.38
2019-04-06T12:10:49.605Z,17.47
2019-04-06T12:11:49.423Z,17.47
2019-04-06T12:12:49.434Z,17.38
2019-04-06T12:13:49.601Z,17.28
2019-04-06T12:14:49.581Z,17.18
2019-04-06T12:15:49.433Z,17.18
2019-04-06T12:16:49.438Z,17.08
2019-04-06T12:17:49.438Z,17.08
2019-04-06T12:18:49.440Z,17.38
2019-04-06T12:19:49.761Z,17.08
2019-04-06T12:20:49.457Z,17.28
2019-04-06T12:21:49.612Z,17.28
2019-04-06T12:22:51.074Z,17.28
2019-04-06T12:23:49.455Z,17.28
2019-04-06T12:24:49.458Z,17.38
2019-04-06T12:25:49.460Z,17.28
2019-04-06T12:26:49.639Z,17.18
2019-04-06T12:27:49.700Z,17.18
2019-04-06T12:28:49.792Z,17.28
2019-04-06T12:29:49.555Z,17.28
2019-04-06T12:30:49.473Z,17.38
2019-04-06T12:31:49.488Z,17.28
2019-04-06T12:32:49.482Z,17.28
2019-04-06T12:33:49.481Z,17.28
2019-04-06T12:34:49.487Z,17.28
2019-04-06T12:35:49.485Z,17.28
2019-04-06T12:36:49.488Z,17.28
2019-04-06T12:37:49.491Z,17.38
2019-04-06T12:38:49.493Z,17.38
2019-04-06T12:39:53.046Z,17.18
2019-04-06T12:40:49.499Z,17.28
2019-04-06T12:41:49.502Z,17.18
2019-04-06T12:42:49.503Z,17.28
2019-04-06T12:43:49.732Z,17.38
2019-04-06T12:44:49.667Z,17.47
2019-04-06T12:45:49.514Z,17.28
2019-04-06T12:46:49.661Z,17.18
2019-04-06T12:47:49.531Z,17.47
2019-04-06T12:48:52.282Z,17.38
2019-04-06T12:49:49.523Z,17.28
2019-04-06T12:50:49.588Z,17.28
2019-04-06T12:51:49.532Z,17.38
2019-04-06T12:52:49.531Z,17.18